createdAt,value
2018-11-29T00:01:41.718Z,0.00
2018-11-29T00:02:41.773Z,0.00
2018-11-29T00:04:34.756Z,0.00
2018-11-29T00:05:34.808Z,0.00
2018-11-29T00:07:27.782Z,0.00
2018-11-29T00:08:27.844Z,0.00
2018-11-29T00:10:20.825Z,0.00
2018-11-29T00:11:20.875Z,0.00
2018-11-29T00:13:13.852Z,0.00
2018-11-29T00:14:13.909Z,0.00
2018-11-29T00:16:06.896Z,0.00
2018-11-29T00:17:06.939Z,0.00
2018-11-29T00:18:59.929Z,0.00
2018-11-29T00:19:59.973Z,0.00
2018-11-29T00:21:52.964Z,0.00
2018-11-29T00:22:53.017Z,0.00
2018-11-29T00:24:46.005Z,0.00
2018-11-29T00:25:46.054Z,0.00
2018-11-29T00:27:39.030Z,0.00
2018-11-29T00:28:39.099Z,0.00
2018-11-29T00:30:32.076Z,0.00
2018-11-29T00:31:32.121Z,0.00
2018-11-29T00:33:25.095Z,0.00
2018-11-29T00:34:25.153Z,0.00
2018-11-29T00:36:18.649Z,0.00
2018-11-29T00:37:18.695Z,0.00
2018-11-29T00:39:11.696Z,0.00
2018-11-29T00:40:11.738Z,0.00
2018-11-29T00:42:04.715Z,0.00
2018-11-29T00:43:04.771Z,0.00
2018-11-29T00:44:57.758Z,0.00
2018-11-29T00:45:57.804Z,0.00
2018-11-29T00:47:50.780Z,0.00
2018-11-29T00:48:50.839Z,0.00
2018-11-29T00:50:43.827Z,0.00
2018-11-29T00:51:43.879Z,0.00
2018-11-29T00:53:36.856Z,0.00
2018-11-29T00:54:36.910Z,0.00
2018-11-29T00:56:29.893Z,0.00
2018-11-29T00:57:29.941Z,0.00
2018-11-29T00:59:22.937Z,0.00
2018-11-29T01:00:22.976Z,0.00
2018-11-29T01:02:15.961Z,0.00
2018-11-29T01:03:16.021Z,0.00
2018-11-29T01:05:09.014Z,0.00
2018-11-29T01:06:09.065Z,0.00
2018-11-29T01:08:02.051Z,0.00
2018-11-29T01:09:02.105Z,0.00
2018-11-29T01:10:55.094Z,0.00
2018-11-29T01:11:55.142Z,0.00
2018-11-29T01:13:48.120Z,0.00
2018-11-29T01:14:48.178Z,0.00
2018-11-29T01:16:41.171Z,0.00
2018-11-29T01:17:41.221Z,0.00
2018-11-29T01:19:34.214Z,0.00
2018-11-29T01:20:34.263Z,0.00
2018-11-29T01:22:27.254Z,0.00
2018-11-29T01:23:27.319Z,0.00
2018-11-29T01:25:20.285Z,0.00
2018-11-29T01:26:20.338Z,0.00
2018-11-29T01:28:13.312Z,0.00
2018-11-29T01:29:13.368Z,0.00
2018-11-29T01:31:06.356Z,0.00
2018-11-29T01:32:06.405Z,0.00
2018-11-29T01:33:59.389Z,0.00
2018-11-29T01:34:59.447Z,0.00
2018-11-29T01:36:52.941Z,0.00
2018-11-29T01:37:52.991Z,0.00
2018-11-29T01:39:45.972Z,0.00
2018-11-29T01:40:46.027Z,0.00
2018-11-29T01:42:39.013Z,0.00
2018-11-29T01:43:39.336Z,0.00
2018-11-29T01:45:32.047Z,0.00
2018-11-29T01:46:32.095Z,0.00
2018-11-29T01:48:25.086Z,0.00
2018-11-29T01:49:25.142Z,0.00
2018-11-29T01:51:18.134Z,0.00
2018-11-29T01:52:18.183Z,0.00
2018-11-29T01:54:11.167Z,0.00
2018-11-29T01:55:11.220Z,0.00
2018-11-29T01:57:04.208Z,0.00
2018-11-29T01:58:04.261Z,0.00
2018-11-29T01:59:57.229Z,0.00
2018-11-29T02:00:57.294Z,0.00
2018-11-29T02:02:50.283Z,0.00
2018-11-29T02:03:50.329Z,0.00
2018-11-29T02:05:43.319Z,0.00
2018-11-29T02:06:43.367Z,0.00
2018-11-29T02:08:36.347Z,0.00
2018-11-29T02:09:36.402Z,0.00
2018-11-29T02:11:29.388Z,0.00
2018-11-29T02:12:29.438Z,0.00
2018-11-29T02:14:22.415Z,0.00
2018-11-29T02:15:22.475Z,0.00
2018-11-29T02:17:15.456Z,0.00
2018-11-29T02:18:15.509Z,0.00
2018-11-29T02:20:08.490Z,0.00
2018-11-29T02:21:08.576Z,0.00
2018-11-29T02:23:01.523Z,0.00
2018-11-29T02:24:01.575Z,0.00
2018-11-29T02:25:54.553Z,0.00
2018-11-29T02:26:54.608Z,0.00
2018-11-29T02:28:47.598Z,0.00
2018-11-29T02:29:47.659Z,0.00
2018-11-29T02:31:40.633Z,0.00
2018-11-29T02:32:40.688Z,0.00
2018-11-29T02:34:33.674Z,0.00
2018-11-29T02:35:33.724Z,0.00
2018-11-29T02:37:26.711Z,0.00
2018-11-29T02:38:26.757Z,0.00
2018-11-29T02:40:19.735Z,0.00
2018-11-29T02:41:19.792Z,0.00
2018-11-29T02:43:12.775Z,0.00
2018-11-29T02:44:12.826Z,0.00
2018-11-29T02:46:05.804Z,0.00
2018-11-29T02:47:05.860Z,0.00
2018-11-29T02:48:58.850Z,0.00
2018-11-29T02:49:58.895Z,0.00
2018-11-29T02:51:51.878Z,0.00
2018-11-29T02:52:51.929Z,0.00
2018-11-29T02:54:44.913Z,0.00
2018-11-29T02:55:44.963Z,0.00
2018-11-29T02:57:37.956Z,0.00
2018-11-29T02:58:38.013Z,0.00
2018-11-29T03:00:30.979Z,0.00
2018-11-29T03:01:31.036Z,0.00
2018-11-29T03:03:24.027Z,0.00
2018-11-29T03:04:24.098Z,0.00
2018-11-29T03:06:17.057Z,0.00
2018-11-29T03:07:17.113Z,0.00
2018-11-29T03:09:10.101Z,0.00
2018-11-29T03:10:10.146Z,0.00
2018-11-29T03:12:03.131Z,0.00
2018-11-29T03:13:03.190Z,0.00
2018-11-29T03:14:56.179Z,0.00
2018-11-29T03:15:56.235Z,0.00
2018-11-29T03:17:49.213Z,0.00
2018-11-29T03:18:49.260Z,0.00
2018-11-29T03:20:42.237Z,0.00
2018-11-29T03:21:42.293Z,0.00
2018-11-29T03:23:35.279Z,0.00
2018-11-29T03:24:35.327Z,0.00
2018-11-29T03:26:28.309Z,0.00
2018-11-29T03:27:28.365Z,0.00
2018-11-29T03:29:21.350Z,0.00
2018-11-29T03:30:21.441Z,0.00
2018-11-29T03:32:14.385Z,0.00
2018-11-29T03:33:14.442Z,0.00
2018-11-29T03:35:07.431Z,0.00
2018-11-29T03:36:07.481Z,0.00
2018-11-29T03:38:00.461Z,0.00
2018-11-29T03:39:00.512Z,0.00
2018-11-29T03:40:53.502Z,0.00
2018-11-29T03:41:53.558Z,0.00
2018-11-29T03:43:46.552Z,0.00
2018-11-29T03:44:46.599Z,0.00
2018-11-29T03:46:39.583Z,0.00
2018-11-29T03:47:39.640Z,0.00
2018-11-29T03:49:32.630Z,0.00
2018-11-29T03:50:32.673Z,0.00
2018-11-29T03:52:25.655Z,0.00
2018-11-29T03:53:25.709Z,0.00
2018-11-29T03:55:18.692Z,0.00
2018-11-29T03:56:18.741Z,0.00
2018-11-29T03:58:11.743Z,0.00
2018-11-29T03:59:11.779Z,0.00
2018-11-29T04:01:04.761Z,0.00
2018-11-29T04:02:04.821Z,0.00
2018-11-29T04:03:57.803Z,0.00
2018-11-29T04:04:57.858Z,0.00
2018-11-29T04:06:50.839Z,0.00
2018-11-29T04:07:50.898Z,0.00
2018-11-29T04:09:43.886Z,0.00
2018-11-29T04:10:43.931Z,0.00
2018-11-29T04:12:36.911Z,0.00
2018-11-29T04:13:36.967Z,0.00
2018-11-29T04:15:29.957Z,0.00
2018-11-29T04:16:30.003Z,0.00
2018-11-29T04:18:22.994Z,0.00
2018-11-29T04:19:23.040Z,0.00
2018-11-29T04:21:16.023Z,0.00
2018-11-29T04:22:16.076Z,0.00
2018-11-29T04:24:09.060Z,0.00
2018-11-29T04:25:09.110Z,0.00
2018-11-29T04:27:02.088Z,0.00
2018-11-29T04:28:02.146Z,0.00
2018-11-29T04:29:55.139Z,0.00
2018-11-29T04:30:55.196Z,0.00
2018-11-29T04:32:48.249Z,0.00
2018-11-29T04:33:48.226Z,0.00
2018-11-29T04:35:41.217Z,0.00
2018-11-29T04:36:41.262Z,0.00
2018-11-29T04:38:34.255Z,0.00
2018-11-29T04:39:34.306Z,0.00
2018-11-29T04:41:27.284Z,0.00
2018-11-29T04:42:27.344Z,0.00
2018-11-29T04:44:20.327Z,0.00
2018-11-29T04:45:20.377Z,0.00
2018-11-29T04:47:13.361Z,0.00
2018-11-29T04:48:13.418Z,0.00
2018-11-29T04:50:06.402Z,0.00
2018-11-29T04:51:06.453Z,0.00
2018-11-29T04:52:59.433Z,0.00
2018-11-29T04:53:59.488Z,0.00
2018-11-29T04:55:52.479Z,0.00
2018-11-29T04:56:52.524Z,0.00
2018-11-29T04:58:45.511Z,0.00
2018-11-29T04:59:45.560Z,0.00
2018-11-29T05:01:38.546Z,0.00
2018-11-29T05:02:38.597Z,0.00
2018-11-29T05:04:31.586Z,0.00
2018-11-29T05:05:31.633Z,0.00
2018-11-29T05:07:24.612Z,0.00
2018-11-29T05:08:24.669Z,0.00
2018-11-29T05:10:17.659Z,0.00
2018-11-29T05:11:17.703Z,0.00
2018-11-29T05:13:10.689Z,0.00
2018-11-29T05:14:10.744Z,0.00
2018-11-29T05:16:03.729Z,0.00
2018-11-29T05:17:03.779Z,0.00
2018-11-29T05:18:56.763Z,0.00
2018-11-29T05:19:56.813Z,0.00
2018-11-29T05:21:49.804Z,0.00
2018-11-29T05:22:49.850Z,0.00
2018-11-29T05:24:42.835Z,0.00
2018-11-29T05:25:42.886Z,0.00
2018-11-29T05:27:35.863Z,0.00
2018-11-29T05:28:35.919Z,0.00
2018-11-29T05:30:28.911Z,0.00
2018-11-29T05:31:28.965Z,0.00
2018-11-29T05:33:21.942Z,0.00
2018-11-29T05:34:21.999Z,0.00
2018-11-29T05:36:15.495Z,0.00
2018-11-29T05:37:15.541Z,0.00
2018-11-29T05:39:08.610Z,0.00
2018-11-29T05:40:08.658Z,0.00
2018-11-29T05:42:01.643Z,0.00
2018-11-29T05:43:01.699Z,0.00
2018-11-29T05:44:54.690Z,0.00
2018-11-29T05:45:54.737Z,0.00
2018-11-29T05:47:47.719Z,0.00
2018-11-29T05:48:47.778Z,0.00
2018-11-29T05:50:40.762Z,0.00
2018-11-29T05:51:40.813Z,0.00
2018-11-29T05:53:33.795Z,0.00
2018-11-29T05:54:33.853Z,0.00
2018-11-29T05:56:26.845Z,0.00
2018-11-29T05:57:26.889Z,0.00
2018-11-29T05:59:19.874Z,0.00
2018-11-29T06:00:19.925Z,0.00
2018-11-29T06:02:12.905Z,0.00
2018-11-29T06:03:12.965Z,0.00
2018-11-29T06:05:05.955Z,0.00
2018-11-29T06:06:06.003Z,0.00
2018-11-29T06:07:59.004Z,0.00
2018-11-29T06:08:59.066Z,0.00
2018-11-29T06:10:52.048Z,0.00
2018-11-29T06:11:52.101Z,0.00
2018-11-29T06:13:45.080Z,0.00
2018-11-29T06:14:45.139Z,0.00
2018-11-29T06:16:38.128Z,0.00
2018-11-29T06:17:38.176Z,0.00
2018-11-29T06:19:31.193Z,0.00
2018-11-29T06:20:31.211Z,0.00
2018-11-29T06:22:24.697Z,0.00
2018-11-29T06:23:24.755Z,0.00
2018-11-29T06:25:17.771Z,0.00
2018-11-29T06:26:17.798Z,0.00
2018-11-29T06:28:10.782Z,0.00
2018-11-29T06:29:10.839Z,0.00
2018-11-29T06:31:03.822Z,0.00
2018-11-29T06:32:03.872Z,0.00
2018-11-29T06:33:56.852Z,0.00
2018-11-29T06:34:56.910Z,0.00
2018-11-29T06:36:49.901Z,0.00
2018-11-29T06:37:49.947Z,0.00
2018-11-29T06:39:42.938Z,0.00
2018-11-29T06:40:42.984Z,0.00
2018-11-29T06:42:35.964Z,0.00
2018-11-29T06:43:36.021Z,0.00
2018-11-29T06:45:29.042Z,4.00
2018-11-29T06:46:29.098Z,4.00
2018-11-29T06:48:22.082Z,4.00
2018-11-29T06:49:22.136Z,4.00
2018-11-29T06:51:15.118Z,8.00
2018-11-29T06:52:15.167Z,8.00
2018-11-29T06:54:08.151Z,8.00
2018-11-29T06:55:08.209Z,8.00
2018-11-29T06:57:01.193Z,16.00
2018-11-29T06:58:01.243Z,16.00
2018-11-29T06:59:54.227Z,20.00
2018-11-29T07:00:54.278Z,24.00
2018-11-29T07:02:47.263Z,32.00
2018-11-29T07:03:47.319Z,32.00
2018-11-29T07:05:40.383Z,48.00
2018-11-29T07:06:40.356Z,52.00
2018-11-29T07:08:33.333Z,64.00
2018-11-29T07:09:33.390Z,72.00
2018-11-29T07:11:26.395Z,80.00
2018-11-29T07:12:26.447Z,84.00
2018-11-29T07:14:19.433Z,96.00
2018-11-29T07:15:19.488Z,104.00
2018-11-29T07:17:12.473Z,112.00
2018-11-29T07:18:12.522Z,116.00
2018-11-29T07:20:05.513Z,128.00
2018-11-29T07:21:05.570Z,136.00
2018-11-29T07:22:58.553Z,144.00
2018-11-29T07:23:58.606Z,148.00
2018-11-29T07:25:51.596Z,160.00
2018-11-29T07:26:51.645Z,168.00
2018-11-29T07:28:44.623Z,184.00
2018-11-29T07:29:44.682Z,192.00
2018-11-29T07:31:37.669Z,224.00
2018-11-29T07:32:37.721Z,248.00
2018-11-29T07:34:30.698Z,272.00
2018-11-29T07:35:30.755Z,272.00
2018-11-29T07:37:23.743Z,280.00
2018-11-29T07:38:23.789Z,300.00
2018-11-29T07:40:16.771Z,352.00
2018-11-29T07:41:16.822Z,360.00
2018-11-29T07:43:09.805Z,340.00
2018-11-29T07:44:09.865Z,328.00
2018-11-29T07:46:02.850Z,324.00
2018-11-29T07:47:02.899Z,324.00
2018-11-29T07:48:55.878Z,336.00
2018-11-29T07:49:55.933Z,360.00
2018-11-29T07:51:48.924Z,436.00
2018-11-29T07:52:48.974Z,484.00
2018-11-29T07:54:41.953Z,560.00
2018-11-29T07:55:42.012Z,592.00
2018-11-29T07:57:34.999Z,644.00
2018-11-29T07:58:35.049Z,676.00
2018-11-29T08:00:28.040Z,732.00
2018-11-29T08:01:28.093Z,756.00
2018-11-29T08:03:21.072Z,812.00
2018-11-29T08:04:21.128Z,836.00
2018-11-29T08:06:14.123Z,872.00
2018-11-29T08:07:14.174Z,880.00
2018-11-29T08:09:07.157Z,908.00
2018-11-29T08:10:07.214Z,960.00
2018-11-29T08:12:00.207Z,1024.00
2018-11-29T08:13:00.251Z,1028.00
2018-11-29T08:14:53.230Z,1056.00
2018-11-29T08:15:53.285Z,1064.00
2018-11-29T08:17:46.274Z,1012.00
2018-11-29T08:18:46.324Z,1012.00
2018-11-29T08:20:39.307Z,1156.00
2018-11-29T08:21:39.356Z,1240.00
2018-11-29T08:23:32.345Z,1252.00
2018-11-29T08:24:32.399Z,1184.00
2018-11-29T08:26:25.390Z,1108.00
2018-11-29T08:27:25.441Z,1188.00
2018-11-29T08:29:18.419Z,1168.00
2018-11-29T08:30:18.477Z,1164.00
2018-11-29T08:32:11.478Z,1292.00
2018-11-29T08:33:11.523Z,1372.00
2018-11-29T08:35:04.505Z,1508.00
2018-11-29T08:36:04.560Z,1444.00
2018-11-29T08:37:57.545Z,1316.00
2018-11-29T08:38:57.598Z,1316.00
2018-11-29T08:40:50.586Z,1496.00
2018-11-29T08:41:50.635Z,1512.00
2018-11-29T08:43:43.622Z,1380.00
2018-11-29T08:44:43.679Z,1472.00
2018-11-29T08:46:36.666Z,1496.00
2018-11-29T08:47:36.717Z,1476.00
2018-11-29T08:49:29.705Z,1512.00
2018-11-29T08:50:29.762Z,1460.00
2018-11-29T08:52:22.747Z,1456.00
2018-11-29T08:53:22.796Z,1500.00
2018-11-29T08:55:15.782Z,1952.00
2018-11-29T08:56:15.839Z,2120.00
2018-11-29T08:58:08.835Z,2096.00
2018-11-29T08:59:08.885Z,2156.00
2018-11-29T09:01:01.875Z,2444.00
2018-11-29T09:02:01.923Z,2312.00
2018-11-29T09:03:54.906Z,2208.00
2018-11-29T09:04:54.961Z,2140.00
2018-11-29T09:06:47.954Z,1816.00
2018-11-29T09:07:48.004Z,1648.00
2018-11-29T09:09:40.986Z,1748.00
2018-11-29T09:10:41.046Z,2000.00
2018-11-29T09:12:34.024Z,1768.00
2018-11-29T09:13:34.077Z,1680.00
2018-11-29T09:15:27.058Z,1760.00
2018-11-29T09:16:27.118Z,1900.00
2018-11-29T09:18:20.106Z,2084.00
2018-11-29T09:19:20.157Z,2044.00
2018-11-29T09:21:13.144Z,1992.00
2018-11-29T09:22:13.192Z,1960.00
2018-11-29T09:24:06.179Z,1936.00
2018-11-29T09:25:06.235Z,1932.00
2018-11-29T09:26:59.221Z,1744.00
2018-11-29T09:27:59.272Z,1720.00
2018-11-29T09:29:52.256Z,1632.00
2018-11-29T09:30:52.317Z,1704.00
2018-11-29T09:32:45.304Z,1752.00
2018-11-29T09:33:45.369Z,1804.00
2018-11-29T09:35:38.338Z,2232.00
2018-11-29T09:36:38.397Z,2432.00
2018-11-29T09:38:31.388Z,2548.00
2018-11-29T09:39:31.439Z,2596.00
2018-11-29T09:41:24.429Z,2772.00
2018-11-29T09:42:24.483Z,2780.00
2018-11-29T09:44:17.465Z,2708.00
2018-11-29T09:45:17.521Z,2864.00
2018-11-29T09:47:10.514Z,3088.00
2018-11-29T09:48:10.561Z,3044.00
2018-11-29T09:50:03.552Z,3116.00
2018-11-29T09:51:03.604Z,3168.00
2018-11-29T09:52:56.595Z,3148.00
2018-11-29T09:53:56.643Z,3340.00
2018-11-29T09:55:49.645Z,3540.00
2018-11-29T09:56:49.690Z,3588.00
2018-11-29T09:58:42.677Z,3736.00
2018-11-29T09:59:42.726Z,3680.00
2018-11-29T10:01:35.714Z,3720.00
2018-11-29T10:02:35.766Z,3864.00
2018-11-29T10:04:28.944Z,3868.00
2018-11-29T10:05:29.003Z,3736.00
2018-11-29T10:07:21.986Z,3636.00
2018-11-29T10:08:26.083Z,3568.00
2018-11-29T10:10:15.015Z,3296.00
2018-11-29T10:11:15.068Z,3208.00
2018-11-29T10:13:08.067Z,3544.00
2018-11-29T10:14:08.119Z,3604.00
2018-11-29T10:16:01.103Z,3084.00
2018-11-29T10:17:01.158Z,2872.00
2018-11-29T10:18:54.157Z,2868.00
2018-11-29T10:19:54.201Z,2808.00
2018-11-29T10:21:47.190Z,2396.00
2018-11-29T10:22:47.240Z,2276.00
2018-11-29T10:24:40.219Z,2032.00
2018-11-29T10:25:40.277Z,2044.00
2018-11-29T10:27:33.270Z,2180.00
2018-11-29T10:28:33.324Z,2196.00
2018-11-29T10:30:26.304Z,2276.00
2018-11-29T10:31:26.364Z,2260.00
2018-11-29T10:33:19.348Z,2080.00
2018-11-29T10:34:19.398Z,2348.00
2018-11-29T10:36:12.392Z,2616.00
2018-11-29T10:37:12.437Z,2688.00
2018-11-29T10:39:05.421Z,2776.00
2018-11-29T10:40:05.481Z,2708.00
2018-11-29T10:41:58.464Z,2720.00
2018-11-29T10:42:58.513Z,2828.00
2018-11-29T10:44:51.496Z,3148.00
2018-11-29T10:45:51.555Z,3056.00
2018-11-29T10:47:44.543Z,3188.00
2018-11-29T10:48:44.593Z,3232.00
2018-11-29T10:50:37.584Z,3188.00
2018-11-29T10:51:37.641Z,3088.00
2018-11-29T10:53:36.160Z,2928.00
2018-11-29T10:54:30.684Z,2856.00
2018-11-29T10:56:23.676Z,2744.00
2018-11-29T10:57:23.732Z,2732.00
2018-11-29T10:59:16.710Z,2720.00
2018-11-29T11:00:16.771Z,2720.00
2018-11-29T11:02:09.758Z,2780.00
2018-11-29T11:03:09.809Z,2840.00
2018-11-29T11:05:02.796Z,2988.00
2018-11-29T11:06:02.850Z,3020.00
2018-11-29T11:07:55.838Z,2952.00
2018-11-29T11:08:55.885Z,2992.00
2018-11-29T11:10:48.867Z,3240.00
2018-11-29T11:11:48.925Z,3192.00
2018-11-29T11:13:41.917Z,3328.00
2018-11-29T11:14:41.973Z,3424.00
2018-11-29T11:16:34.963Z,3688.00
2018-11-29T11:17:35.011Z,3772.00
2018-11-29T11:19:28.001Z,3696.00
2018-11-29T11:20:28.057Z,3688.00
2018-11-29T11:22:21.555Z,3608.00
2018-11-29T11:23:21.608Z,3836.00
2018-11-29T11:25:14.604Z,4404.00
2018-11-29T11:26:14.663Z,4476.00
2018-11-29T11:28:07.652Z,4384.00
2018-11-29T11:29:07.703Z,4420.00
2018-11-29T11:31:00.696Z,4520.00
2018-11-29T11:32:00.749Z,4276.00
2018-11-29T11:33:53.734Z,3908.00
2018-11-29T11:34:53.783Z,4016.00
2018-11-29T11:36:46.775Z,4364.00
2018-11-29T11:37:46.827Z,4252.00
2018-11-29T11:39:39.813Z,3944.00
2018-11-29T11:40:39.868Z,3640.00
2018-11-29T11:42:32.860Z,3356.00
2018-11-29T11:43:32.908Z,3060.00
2018-11-29T11:45:25.981Z,3432.00
2018-11-29T11:46:26.041Z,3740.00
2018-11-29T11:48:19.030Z,4056.00
2018-11-29T11:49:19.079Z,3976.00
2018-11-29T11:51:12.065Z,4120.00
2018-11-29T11:52:12.136Z,4276.00
2018-11-29T11:54:05.118Z,4220.00
2018-11-29T11:55:05.168Z,3668.00
2018-11-29T11:56:58.171Z,3684.00
2018-11-29T11:57:58.208Z,3896.00
2018-11-29T11:59:51.193Z,4196.00
2018-11-29T12:00:51.253Z,3716.00
2018-11-29T12:02:44.307Z,2848.00
2018-11-29T12:03:44.295Z,2804.00
2018-11-29T12:05:37.286Z,2800.00
2018-11-29T12:06:37.340Z,2360.00
2018-11-29T12:08:30.329Z,2852.00
2018-11-29T12:09:30.389Z,3144.00
2018-11-29T12:11:23.374Z,3060.00
2018-11-29T12:12:23.432Z,3152.00
2018-11-29T12:14:16.434Z,3804.00
2018-11-29T12:15:16.479Z,3800.00
2018-11-29T12:17:09.473Z,3740.00
2018-11-29T12:18:09.526Z,3668.00
2018-11-29T12:20:02.520Z,3424.00
2018-11-29T12:21:02.569Z,3256.00
2018-11-29T12:22:57.084Z,2912.00
2018-11-29T12:23:57.135Z,2744.00
2018-11-29T12:25:50.117Z,2372.00
2018-11-29T12:26:50.177Z,2080.00
2018-11-29T12:28:43.169Z,1636.00
2018-11-29T12:29:43.226Z,1588.00
2018-11-29T12:31:36.207Z,1508.00
2018-11-29T12:32:36.266Z,1512.00
2018-11-29T12:34:29.265Z,1724.00
2018-11-29T12:35:29.316Z,1796.00
2018-11-29T12:37:22.309Z,1856.00
2018-11-29T12:38:22.375Z,1828.00
2018-11-29T12:40:15.348Z,1816.00
2018-11-29T12:41:15.400Z,1872.00
2018-11-29T12:43:08.395Z,1768.00
2018-11-29T12:44:08.444Z,1548.00
2018-11-29T12:46:01.426Z,1180.00
2018-11-29T12:47:01.491Z,948.00
2018-11-29T12:48:54.477Z,776.00
2018-11-29T12:49:54.524Z,748.00
2018-11-29T12:51:48.619Z,740.00
2018-11-29T12:52:47.565Z,744.00
2018-11-29T12:54:40.553Z,736.00
2018-11-29T12:55:40.606Z,752.00
2018-11-29T12:57:33.597Z,780.00
2018-11-29T12:58:33.641Z,768.00
2018-11-29T13:00:26.626Z,696.00
2018-11-29T13:01:26.677Z,664.00
2018-11-29T13:03:19.668Z,664.00
2018-11-29T13:04:19.717Z,680.00
2018-11-29T13:06:12.701Z,696.00
2018-11-29T13:07:12.754Z,712.00
2018-11-29T13:09:05.774Z,748.00
2018-11-29T13:10:05.792Z,780.00
2018-11-29T13:11:59.212Z,832.00
2018-11-29T13:12:58.830Z,836.00
2018-11-29T13:14:51.815Z,876.00
2018-11-29T13:15:51.866Z,888.00
2018-11-29T13:17:44.850Z,876.00
2018-11-29T13:18:44.918Z,868.00
2018-11-29T13:20:37.907Z,900.00
2018-11-29T13:21:37.957Z,904.00
2018-11-29T13:23:30.942Z,876.00
2018-11-29T13:24:30.994Z,868.00
2018-11-29T13:26:23.979Z,900.00
2018-11-29T13:27:24.055Z,924.00
2018-11-29T13:29:17.046Z,1064.00
2018-11-29T13:30:17.071Z,1096.00
2018-11-29T13:32:10.072Z,964.00
2018-11-29T13:33:10.131Z,956.00
2018-11-29T13:35:03.116Z,896.00
2018-11-29T13:36:03.169Z,904.00
2018-11-29T13:37:56.148Z,900.00
2018-11-29T13:38:56.225Z,904.00
2018-11-29T13:40:49.191Z,872.00
2018-11-29T13:41:49.238Z,892.00
2018-11-29T13:43:42.234Z,916.00
2018-11-29T13:44:42.289Z,900.00
2018-11-29T13:46:35.270Z,860.00
2018-11-29T13:47:35.328Z,856.00
2018-11-29T13:49:28.320Z,852.00
2018-11-29T13:50:28.374Z,860.00
2018-11-29T13:52:21.353Z,804.00
2018-11-29T13:53:21.411Z,808.00
2018-11-29T13:55:14.911Z,808.00
2018-11-29T13:56:14.958Z,788.00
2018-11-29T13:58:07.949Z,792.00
2018-11-29T13:59:08.009Z,788.00
2018-11-29T14:01:01.520Z,788.00
2018-11-29T14:02:01.563Z,760.00
2018-11-29T14:03:54.548Z,732.00
2018-11-29T14:04:54.600Z,692.00
2018-11-29T14:06:47.583Z,664.00
2018-11-29T14:07:47.640Z,656.00
2018-11-29T14:09:40.632Z,688.00
2018-11-29T14:10:40.679Z,716.00
2018-11-29T14:12:33.661Z,728.00
2018-11-29T14:13:33.718Z,724.00
2018-11-29T14:15:26.709Z,732.00
2018-11-29T14:16:26.760Z,684.00
2018-11-29T14:18:19.743Z,632.00
2018-11-29T14:19:19.795Z,584.00
2018-11-29T14:21:12.872Z,568.00
2018-11-29T14:22:12.924Z,560.00
2018-11-29T14:24:05.916Z,532.00
2018-11-29T14:25:05.967Z,516.00
2018-11-29T14:26:58.949Z,480.00
2018-11-29T14:27:59.010Z,448.00
2018-11-29T14:29:51.997Z,428.00
2018-11-29T14:30:52.046Z,420.00
2018-11-29T14:32:45.022Z,408.00
2018-11-29T14:33:45.146Z,396.00
2018-11-29T14:35:38.083Z,360.00
2018-11-29T14:36:38.128Z,344.00
2018-11-29T14:38:31.111Z,320.00
2018-11-29T14:39:31.170Z,308.00
2018-11-29T14:41:24.161Z,288.00
2018-11-29T14:42:24.207Z,280.00
2018-11-29T14:44:17.199Z,272.00
2018-11-29T14:45:17.245Z,268.00
2018-11-29T14:47:10.227Z,256.00
2018-11-29T14:48:10.283Z,240.00
2018-11-29T14:50:03.274Z,220.00
2018-11-29T14:51:03.327Z,212.00
2018-11-29T14:52:56.354Z,188.00
2018-11-29T14:53:56.370Z,176.00
2018-11-29T14:55:49.361Z,164.00
2018-11-29T14:56:49.406Z,156.00
2018-11-29T14:58:42.387Z,144.00
2018-11-29T14:59:42.445Z,144.00
2018-11-29T15:01:35.946Z,136.00
2018-11-29T15:02:36.003Z,132.00
2018-11-29T15:04:28.985Z,132.00
2018-11-29T15:05:29.045Z,132.00
2018-11-29T15:07:22.018Z,132.00
2018-11-29T15:08:22.072Z,132.00
2018-11-29T15:10:15.061Z,148.00
2018-11-29T15:11:15.148Z,160.00
2018-11-29T15:13:08.097Z,184.00
2018-11-29T15:14:08.156Z,192.00
2018-11-29T15:16:01.146Z,200.00
2018-11-29T15:17:01.193Z,200.00
2018-11-29T15:18:54.179Z,188.00
2018-11-29T15:19:54.248Z,172.00
2018-11-29T15:21:47.230Z,140.00
2018-11-29T15:22:47.347Z,124.00
2018-11-29T15:24:40.267Z,108.00
2018-11-29T15:25:40.314Z,100.00
2018-11-29T15:27:33.295Z,88.00
2018-11-29T15:28:33.352Z,72.00
2018-11-29T15:30:26.339Z,52.00
2018-11-29T15:31:26.397Z,48.00
2018-11-29T15:33:19.380Z,40.00
2018-11-29T15:34:19.427Z,32.00
2018-11-29T15:36:12.416Z,24.00
2018-11-29T15:37:12.466Z,20.00
2018-11-29T15:39:05.443Z,16.00
2018-11-29T15:40:05.502Z,12.00
2018-11-29T15:41:58.488Z,8.00
2018-11-29T15:42:58.538Z,4.00
2018-11-29T15:44:51.530Z,4.00
2018-11-29T15:45:51.574Z,8.00
2018-11-29T15:47:44.555Z,4.00
2018-11-29T15:48:44.612Z,4.00
2018-11-29T15:50:37.613Z,4.00
2018-11-29T15:51:37.665Z,4.00
2018-11-29T15:53:30.652Z,0.00
2018-11-29T15:54:30.706Z,0.00
2018-11-29T15:56:23.698Z,0.00
2018-11-29T15:57:23.742Z,0.00
2018-11-29T15:59:16.722Z,0.00
2018-11-29T16:00:16.781Z,0.00
2018-11-29T16:02:09.772Z,0.00
2018-11-29T16:03:09.818Z,0.00
2018-11-29T16:05:02.804Z,0.00
2018-11-29T16:06:02.858Z,0.00
2018-11-29T16:07:56.349Z,0.00
2018-11-29T16:08:56.404Z,0.00
2018-11-29T16:10:49.394Z,0.00
2018-11-29T16:11:49.435Z,0.00
2018-11-29T16:13:42.426Z,0.00
2018-11-29T16:14:43.551Z,0.00
2018-11-29T16:16:35.487Z,0.00
2018-11-29T16:17:35.534Z,0.00
2018-11-29T16:19:28.517Z,0.00
2018-11-29T16:20:28.642Z,0.00
2018-11-29T16:22:21.565Z,0.00
2018-11-29T16:23:21.611Z,0.00
2018-11-29T16:25:14.604Z,0.00
2018-11-29T16:26:14.700Z,0.00
2018-11-29T16:28:07.640Z,0.00
2018-11-29T16:29:07.725Z,0.00
2018-11-29T16:31:00.687Z,0.00
2018-11-29T16:32:00.739Z,0.00
2018-11-29T16:33:53.729Z,0.00
2018-11-29T16:34:53.782Z,0.00
2018-11-29T16:36:46.775Z,0.00
2018-11-29T16:37:46.822Z,0.00
2018-11-29T16:39:39.803Z,0.00
2018-11-29T16:40:39.860Z,0.00
2018-11-29T16:42:32.852Z,0.00
2018-11-29T16:43:33.201Z,0.00
2018-11-29T16:45:25.891Z,0.00
2018-11-29T16:46:25.943Z,0.00
2018-11-29T16:48:18.932Z,0.00
2018-11-29T16:49:18.975Z,0.00
2018-11-29T16:51:11.979Z,0.00
2018-11-29T16:52:12.015Z,0.00
2018-11-29T16:54:04.994Z,0.00
2018-11-29T16:55:05.051Z,0.00
2018-11-29T16:56:58.040Z,0.00
2018-11-29T16:57:58.090Z,0.00
2018-11-29T16:59:51.080Z,0.00
2018-11-29T17:00:51.135Z,0.00
2018-11-29T17:02:44.125Z,0.00
2018-11-29T17:03:44.172Z,0.00
2018-11-29T17:05:37.162Z,0.00
2018-11-29T17:06:37.214Z,0.00
2018-11-29T17:08:30.700Z,0.00
2018-11-29T17:09:30.756Z,0.00
2018-11-29T17:11:23.743Z,0.00
2018-11-29T17:12:23.796Z,0.00
2018-11-29T17:14:16.774Z,0.00
2018-11-29T17:15:16.833Z,0.00
2018-11-29T17:17:09.823Z,0.00
2018-11-29T17:18:09.888Z,0.00
2018-11-29T17:20:02.853Z,0.00
2018-11-29T17:21:02.909Z,0.00
2018-11-29T17:22:55.903Z,0.00
2018-11-29T17:23:55.951Z,0.00
2018-11-29T17:25:48.943Z,0.00
2018-11-29T17:26:48.986Z,0.00
2018-11-29T17:28:41.972Z,0.00
2018-11-29T17:29:42.032Z,0.00
2018-11-29T17:31:35.050Z,0.00
2018-11-29T17:32:35.085Z,0.00
2018-11-29T17:34:28.060Z,0.00
2018-11-29T17:35:28.133Z,0.00
2018-11-29T17:37:21.105Z,0.00
2018-11-29T17:38:21.157Z,0.00
2018-11-29T17:40:14.148Z,0.00
2018-11-29T17:41:14.200Z,0.00
2018-11-29T17:43:07.186Z,0.00
2018-11-29T17:44:07.241Z,0.00
2018-11-29T17:46:00.254Z,0.00
2018-11-29T17:47:00.277Z,0.00
2018-11-29T17:48:53.263Z,0.00
2018-11-29T17:49:53.390Z,0.00
2018-11-29T17:51:46.305Z,0.00
2018-11-29T17:52:46.355Z,0.00
2018-11-29T17:54:39.340Z,0.00
2018-11-29T17:55:39.397Z,0.00
2018-11-29T17:57:32.396Z,0.00
2018-11-29T17:58:32.447Z,0.00
2018-11-29T18:00:25.430Z,0.00
2018-11-29T18:01:25.486Z,0.00
2018-11-29T18:03:18.490Z,0.00
2018-11-29T18:04:18.543Z,0.00
2018-11-29T18:06:11.588Z,0.00
2018-11-29T18:07:11.576Z,0.00
2018-11-29T18:09:04.557Z,0.00
2018-11-29T18:10:04.618Z,0.00
2018-11-29T18:11:57.606Z,0.00
2018-11-29T18:12:57.661Z,0.00
2018-11-29T18:14:50.644Z,0.00
2018-11-29T18:15:50.699Z,0.00
2018-11-29T18:17:43.692Z,0.00
2018-11-29T18:18:43.742Z,0.00
2018-11-29T18:20:36.765Z,0.00
2018-11-29T18:21:36.803Z,0.00
2018-11-29T18:23:29.786Z,0.00
2018-11-29T18:24:29.831Z,0.00
2018-11-29T18:26:22.864Z,0.00
2018-11-29T18:27:22.868Z,0.00
2018-11-29T18:29:15.865Z,0.00